메인 페이지
METAR-TAF:

METAR-TAF

공항 :

베오그라드 니콜라 테슬라 국제공항

베오그라드, 세르비아

위도: 44-49N, 경도: 020-17E, 고도: 96m

현재 날씨관측

예보는 34분 전, 09:30시(UTC)에 발표되었습니다.
8kt북북서풍과 북동풍을 오가는
온도 22°C
습도 50%
기압 1019 hPa
시정 10km 이상
1500m 미만 상공 구름 및 적란운 없음

METAR: LYBE 200930Z 01008KT 340V040 CAVOK 22/11 Q1019 NOSIG

시각: 12:04 (10:04 UTC)

예보

예보는 5 시간 4분 전, 05:00시(UTC)에 발표되었습니다.
예보 대상 시간: 20일 06시부터 21일 06시까지 (UTC)
북북동5kt
시정 10km 이상
고도 4000ft 상공 구름 보통
일시적
21일 02시부터 21일 05시까지 (UTC)
시정: 3000m
박무

TAF: LYBE 200500Z 2006/2106 02005KT 9999 SCT040 TX26/2014Z TN13/2103Z TEMPO 2102/2105 3000 BR

4,000개 이상의 공항 관측 자료 및 예보 (METAR 및 TAF 보고).

지도상에서 검색 가능한 기상관측소가 노란 점과 빨간 점으로 표시되어 있습니다.

기상관측소 명을 보려면 표시 위로 마우스를 이동하세요.

날씨 관측과 예보를 보려면 클릭하세요.

지도 변경 : 확대하려면 엑스 표시가 있는 녹색 버튼, 축소하려면 빼기 표시가 있는 녹색 버튼, 다음 페이지의 지도를 보려면 녹색 화살표를 클릭하세요.


METAR-TAF: